Time;durP1;ratioP1;P1;durP2;ratioP2;P2;SDS_P1;SDS_P2;PMS_P1;PMS_P2;Temp;Humidity;BMP_temperature;BMP_pressure;BME280_temperature;BME280_humidity;BME280_pressure;Samples;Min_cycle;Max_cycle;Signal;HPM_P1;HPM_P2
2022/12/01 00:00:13;;;;;;;32.67;18.27;;;6.60;99.90;;;;;;5031794;28;20034;-46
2022/12/01 00:02:38;;;;;;;38.97;19.63;;;5.30;99.90;;;;;;5031862;28;20064;-44
2022/12/01 00:05:04;;;;;;;40.25;20.23;;;5.40;99.90;;;;;;5031305;28;20048;-49
2022/12/01 00:07:30;;;;;;;41.50;20.85;;;6.20;99.90;;;;;;5031401;28;20439;-47
2022/12/01 00:12:42;;;;;;;41.05;18.92;;;5.60;99.90;;;;;;5031812;28;20036;-41
2022/12/01 00:15:11;;;;;;;54.45;21.08;;;6.10;99.90;;;;;;5031485;28;20125;-42
2022/12/01 00:17:37;;;;;;;67.47;25.83;;;6.60;99.90;;;;;;5031706;28;20098;-48
2022/12/01 00:20:04;;;;;;;50.78;22.02;;;6.60;99.90;;;;;;5031524;28;20029;-45
2022/12/01 00:22:30;;;;;;;49.63;21.38;;;;;;;;;;5031300;28;20071;-44
2022/12/01 00:24:55;;;;;;;52.08;22.13;;;7.30;99.90;;;;;;5031477;28;20034;-46
2022/12/01 00:27:21;;;;;;;43.58;20.63;;;5.90;99.90;;;;;;5031139;28;20033;-50
2022/12/01 00:29:47;;;;;;;53.88;21.77;;;5.20;99.90;;;;;;5031338;28;20033;-52
2022/12/01 00:32:13;;;;;;;58.80;23.85;;;6.60;99.90;;;;;;5031149;28;20082;-54
2022/12/01 00:34:39;;;;;;;63.33;24.70;;;6.60;99.90;;;;;;5028527;28;20041;-55
2022/12/01 00:37:04;;;;;;;56.38;23.20;;;6.70;99.90;;;;;;5030507;28;20376;-48
2022/12/01 00:39:30;;;;;;;59.05;23.45;;;6.80;99.90;;;;;;5031285;28;20112;-47
2022/12/01 00:41:56;;;;;;;53.33;22.00;;;7.70;99.90;;;;;;5030882;28;20468;-52
2022/12/01 00:44:22;;;;;;;51.15;20.40;;;6.70;99.90;;;;;;5031490;28;20029;-42
2022/12/01 00:46:48;;;;;;;48.75;22.77;;;7.90;99.90;;;;;;5031039;28;20503;-47
2022/12/01 00:49:14;;;;;;;51.88;22.27;;;6.90;99.90;;;;;;5031115;28;20029;-50
2022/12/01 00:51:40;;;;;;;45.80;19.48;;;6.80;99.90;;;;;;5030744;28;20025;-53
2022/12/01 00:54:06;;;;;;;38.67;18.80;;;7.60;99.90;;;;;;5030789;28;20107;-45
2022/12/01 00:56:31;;;;;;;44.63;19.60;;;6.90;99.90;;;;;;5031101;28;20033;-44
2022/12/01 00:58:57;;;;;;;38.28;18.05;;;8.10;99.90;;;;;;5031200;28;20087;-42
2022/12/01 01:01:23;;;;;;;35.72;16.83;;;6.80;99.90;;;;;;5030925;28;20022;-45
2022/12/01 01:03:49;;;;;;;42.47;17.92;;;;;;;;;;5030941;28;20473;-44
2022/12/01 01:06:15;;;;;;;34.58;17.73;;;8.60;99.90;;;;;;5030192;28;20053;-48
2022/12/01 01:08:41;;;;;;;34.30;17.38;;;6.90;99.90;;;;;;5031009;28;20030;-53
2022/12/01 01:11:08;;;;;;;34.25;16.58;;;7.90;99.90;;;;;;5030404;28;20388;-43
2022/12/01 01:13:34;;;;;;;31.67;16.33;;;5.00;99.90;;;;;;5030523;28;20472;-42
2022/12/01 01:16:12;;;;;;;34.80;16.13;;;7.00;99.90;;;;;;5030646;28;20033;-53
2022/12/01 01:18:37;;;;;;;32.05;15.88;;;7.90;99.90;;;;;;5017587;28;20025;-55
2022/12/01 01:21:09;;;;;;;29.83;16.30;;;5.20;99.90;;;;;;5030316;28;20045;-50
2022/12/01 01:23:35;;;;;;;34.05;16.30;;;7.00;99.90;;;;;;5030671;28;20026;-55
2022/12/01 01:26:24;;;;;;;32.45;15.68;;;6.10;99.90;;;;;;5030631;28;20025;-47
2022/12/01 01:28:50;;;;;;;33.17;16.38;;;8.30;99.90;;;;;;5017636;28;20045;-51
2022/12/01 01:31:19;;;;;;;34.70;17.08;;;8.20;99.90;;;;;;5032045;28;20079;-45
2022/12/01 01:33:44;;;;;;;35.15;17.58;;;5.10;99.90;;;;;;5029302;28;20029;-46
2022/12/01 01:36:10;;;;;;;33.72;17.60;;;7.10;99.90;;;;;;5030431;28;20072;-47
2022/12/01 01:38:36;;;;;;;30.58;15.20;;;;;;;;;;5029089;28;20017;-42
2022/12/01 01:41:04;;;;;;;29.83;15.98;;;8.80;99.90;;;;;;5030556;28;20567;-45
2022/12/01 01:43:43;;;;;;;32.83;16.25;;;6.00;99.90;;;;;;5030489;28;20029;-45
2022/12/01 01:46:13;;;;;;;31.80;16.35;;;6.60;99.90;;;;;;5030572;28;20457;-42
2022/12/01 01:48:40;;;;;;;35.88;17.38;;;4.90;99.90;;;;;;5030468;28;20048;-46
2022/12/01 01:51:07;;;;;;;30.13;16.88;;;7.80;99.90;;;;;;5030740;28;20435;-48
2022/12/01 01:53:33;;;;;;;30.75;16.35;;;6.70;99.90;;;;;;5030223;28;20056;-45
2022/12/01 01:56:00;;;;;;;31.10;15.80;;;7.90;99.90;;;;;;5030601;28;20025;-41
2022/12/01 01:58:26;;;;;;;28.83;15.50;;;5.50;99.90;;;;;;5029960;28;20539;-45
2022/12/01 02:00:52;;;;;;;30.08;15.48;;;;;;;;;;5030281;28;20037;-46
2022/12/01 02:03:19;;;;;;;29.30;15.35;;;7.20;99.90;;;;;;5030565;28;20030;-55
2022/12/01 02:05:45;;;;;;;28.45;15.27;;;7.20;99.90;;;;;;5030080;28;20022;-45
2022/12/01 02:08:11;;;;;;;27.77;15.02;;;8.60;99.90;;;;;;5030326;28;20064;-42
2022/12/01 02:11:18;;;;;;;31.17;15.00;;;8.60;99.90;;;;;;5030074;28;20076;-44
2022/12/01 02:13:55;;;;;;;31.65;15.52;;;6.70;99.90;;;;;;5020026;28;20046;-43
2022/12/01 02:16:40;;;;;;;27.70;14.35;;;7.60;99.90;;;;;;5030389;28;20034;-44
2022/12/01 02:19:09;;;;;;;29.40;15.55;;;7.60;99.90;;;;;;5033198;28;20029;-46
2022/12/01 02:22:04;;;;;;;32.13;15.80;;;6.90;99.90;;;;;;5033075;28;20025;-47
2022/12/01 02:24:32;;;;;;;31.85;16.02;;;7.30;99.90;;;;;;5033241;28;20500;-47
2022/12/01 02:27:05;;;;;;;37.75;17.10;;;6.50;99.90;;;;;;5033490;28;20093;-44
2022/12/01 02:29:52;;;;;;;35.67;16.55;;;4.50;99.90;;;;;;5032486;28;20065;-51
2022/12/01 02:32:33;;;;;;;33.60;15.98;;;8.20;99.90;;;;;;5033518;28;20014;-43
2022/12/01 02:35:02;;;;;;;34.33;15.77;;;6.80;99.90;;;;;;5033344;28;20554;-50
2022/12/01 02:37:36;;;;;;;28.33;15.25;;;4.60;99.90;;;;;;5033667;28;20026;-52
2022/12/01 02:40:31;;;;;;;36.17;16.33;;;7.70;99.90;;;;;;5033221;28;20121;-41
2022/12/01 02:43:09;;;;;;;32.33;15.07;;;7.80;99.90;;;;;;5033279;28;20034;-45
2022/12/01 02:45:44;;;;;;;32.92;15.23;;;6.60;99.90;;;;;;5032185;28;20021;-41
2022/12/01 02:48:16;;;;;;;28.95;15.65;;;7.20;99.90;;;;;;5032939;28;20405;-41
2022/12/01 02:50:44;;;;;;;33.67;15.95;;;7.70;99.90;;;;;;5032709;28;20025;-41
2022/12/01 02:53:14;;;;;;;27.95;15.07;;;7.10;99.90;;;;;;5032911;28;20467;-41
2022/12/01 02:55:52;;;;;;;29.00;15.48;;;5.00;99.90;;;;;;5033155;28;20037;-45
2022/12/01 02:58:18;;;;;;;28.88;15.13;;;7.10;99.90;;;;;;5029989;28;20032;-48
2022/12/01 03:01:14;;;;;;;26.95;15.45;;;5.10;99.90;;;;;;5032928;28;20030;-48
2022/12/01 03:03:54;;;;;;;30.42;14.82;;;6.20;99.90;;;;;;5032978;28;20037;-45
2022/12/01 03:06:40;;;;;;;31.23;15.05;;;7.80;99.90;;;;;;5032852;28;20017;-44
2022/12/01 03:09:18;;;;;;;29.88;15.02;;;5.30;99.90;;;;;;5032913;28;20484;-42
2022/12/01 03:12:03;;;;;;;27.10;14.02;;;6.50;99.90;;;;;;5020218;28;20029;-44
2022/12/01 03:14:50;;;;;;;31.17;15.68;;;5.10;99.90;;;;;;5032358;28;20096;-52
2022/12/01 03:17:23;;;;;;;30.95;16.05;;;7.50;99.90;;;;;;5032475;28;20056;-45
2022/12/01 03:19:54;;;;;;;29.58;16.15;;;6.30;99.90;;;;;;5032004;28;20021;-51
2022/12/01 03:22:27;;;;;;;30.70;16.25;;;6.30;99.90;;;;;;5035745;28;20029;-45
2022/12/01 03:24:55;;;;;;;31.35;14.82;;;5.90;99.90;;;;;;5046650;28;20017;-55
2022/12/01 03:27:26;;;;;;;27.88;15.15;;;5.50;99.90;;;;;;5039149;28;20484;-41
2022/12/01 03:29:55;;;;;;;29.98;14.70;;;5.70;99.90;;;;;;5040801;28;20029;-45
2022/12/01 03:32:34;;;;;;;27.45;14.38;;;6.80;99.90;;;;;;5052496;28;20029;-42
2022/12/01 03:35:09;;;;;;;27.25;13.55;;;5.80;99.90;;;;;;5046334;28;20438;-48
2022/12/01 03:37:56;;;;;;;26.63;13.38;;;6.00;99.90;;;;;;5045631;28;20027;-41
2022/12/01 03:40:28;;;;;;;28.70;13.40;;;6.10;99.90;;;;;;5028385;28;20044;-43
2022/12/01 03:42:58;;;;;;;28.98;14.52;;;7.50;99.90;;;;;;5051964;28;20032;-48
2022/12/01 03:45:32;;;;;;;28.73;13.88;;;6.10;99.90;;;;;;5052215;28;20040;-44
2022/12/01 03:47:58;;;;;;;24.40;14.23;;;6.20;99.90;;;;;;5049608;28;20063;-48
2022/12/01 03:50:34;;;;;;;29.40;14.65;;;6.00;99.90;;;;;;5052176;28;20060;-44
2022/12/01 03:53:07;;;;;;;31.60;15.43;;;7.10;99.90;;;;;;5038235;28;20042;-47
2022/12/01 03:55:39;;;;;;;28.55;13.35;;;3.70;99.90;;;;;;5025463;28;20037;-43
2022/12/01 03:58:12;;;;;;;29.27;14.52;;;7.00;99.90;;;;;;5051840;28;20086;-43
2022/12/01 04:00:39;;;;;;;24.02;13.15;;;;;;;;;;5051883;28;20048;-41
2022/12/01 04:03:04;;;;;;;25.25;13.18;;;3.80;99.90;;;;;;5051621;28;20028;-40
2022/12/01 04:05:32;;;;;;;26.13;12.88;;;7.00;99.90;;;;;;5051569;28;20033;-42
2022/12/01 04:07:59;;;;;;;25.52;12.80;;;3.80;99.90;;;;;;5051949;28;20021;-47
2022/12/01 04:10:25;;;;;;;28.80;12.95;;;6.30;99.90;;;;;;5048850;28;20031;-41
2022/12/01 04:12:57;;;;;;;22.58;12.77;;;3.70;99.90;;;;;;5034749;28;20049;-43
2022/12/01 04:15:23;;;;;;;20.02;9.88;;;6.30;99.90;;;;;;5047249;28;20045;-44
2022/12/01 04:17:48;;;;;;;17.02;8.02;;;6.00;99.90;;;;;;5051515;28;20104;-43
2022/12/01 04:20:15;;;;;;;13.80;6.30;;;7.70;99.90;;;;;;5051513;28;20522;-43
2022/12/01 04:22:41;;;;;;;15.23;7.68;;;7.00;99.90;;;;;;5051688;28;20021;-44
2022/12/01 04:25:07;;;;;;;13.65;6.53;;;6.70;99.90;;;;;;5051444;28;20032;-42
2022/12/01 04:27:34;;;;;;;22.20;10.13;;;7.50;99.90;;;;;;5035800;28;20032;-44
2022/12/01 04:29:59;;;;;;;25.65;12.70;;;5.90;99.90;;;;;;5051403;28;20029;-42
2022/12/01 04:32:26;;;;;;;22.35;11.55;;;;;;;;;;5051174;28;20104;-41
2022/12/01 04:34:52;;;;;;;22.25;13.10;;;6.50;99.90;;;;;;5051251;28;20048;-44
2022/12/01 04:37:18;;;;;;;23.15;12.07;;;4.60;99.90;;;;;;5051199;28;20025;-51
2022/12/01 04:39:44;;;;;;;26.67;11.90;;;;;;;;;;5051164;28;20037;-42
2022/12/01 04:42:10;;;;;;;11.10;5.90;;;6.60;99.90;;;;;;5050931;28;20075;-42
2022/12/01 04:44:36;;;;;;;11.43;5.68;;;6.50;99.90;;;;;;5051096;28;20029;-42
2022/12/01 04:47:05;;;;;;;13.18;6.60;;;6.60;99.90;;;;;;5051044;28;20021;-41
2022/12/01 04:49:31;;;;;;;12.98;7.18;;;7.30;99.90;;;;;;5051286;28;20028;-41
2022/12/01 04:51:57;;;;;;;15.05;7.47;;;;;;;;;;5034811;28;20034;-41
2022/12/01 04:54:23;;;;;;;16.98;8.13;;;7.70;99.90;;;;;;5030683;28;20478;-41
2022/12/01 04:56:49;;;;;;;20.15;10.05;;;5.50;99.90;;;;;;5031353;28;20022;-46
2022/12/01 04:59:15;;;;;;;17.55;9.35;;;6.80;99.90;;;;;;5030852;28;20033;-48
2022/12/01 05:01:40;;;;;;;17.30;9.45;;;7.10;99.90;;;;;;5030932;28;20033;-45
2022/12/01 05:04:06;;;;;;;16.88;9.10;;;8.40;99.90;;;;;;5031332;28;20026;-49
2022/12/01 05:06:32;;;;;;;16.95;7.55;;;7.80;99.90;;;;;;5031031;28;20029;-41
2022/12/01 05:09:00;;;;;;;13.65;6.70;;;7.10;99.90;;;;;;5029691;28;20495;-42
2022/12/01 05:11:28;;;;;;;15.02;6.88;;;7.20;99.90;;;;;;5030745;28;20465;-42
2022/12/01 05:13:54;;;;;;;11.77;5.65;;;5.90;99.90;;;;;;5030899;28;20049;-46
2022/12/01 05:16:25;;;;;;;11.35;6.03;;;7.60;99.90;;;;;;5030539;28;20036;-42
2022/12/01 05:21:38;;;;;;;9.75;4.93;;;7.00;99.90;;;;;;5041952;28;20036;-44
2022/12/01 05:24:05;;;;;;;11.52;5.50;;;8.00;99.90;;;;;;5048995;28;20376;-49
2022/12/01 05:26:31;;;;;;;12.80;5.15;;;6.90;99.90;;;;;;5041760;28;20037;-41
2022/12/01 05:28:56;;;;;;;12.60;4.97;;;7.60;99.90;;;;;;5033840;28;20091;-42
2022/12/01 05:31:22;;;;;;;11.27;4.93;;;8.00;99.90;;;;;;5030719;28;20022;-48
2022/12/01 05:33:48;;;;;;;11.18;5.10;;;7.90;99.90;;;;;;5030580;28;20036;-43
2022/12/01 05:36:13;;;;;;;12.23;5.25;;;4.80;99.90;;;;;;5030539;28;20107;-43
2022/12/01 05:38:39;;;;;;;10.93;4.45;;;7.60;99.90;;;;;;5030640;28;20017;-44
2022/12/01 05:41:04;;;;;;;9.75;4.35;;;8.20;99.90;;;;;;5036347;28;20029;-48
2022/12/01 05:43:30;;;;;;;9.10;4.32;;;7.10;99.90;;;;;;5030487;28;20100;-44
2022/12/01 05:45:56;;;;;;;12.25;4.70;;;7.40;99.90;;;;;;5030574;28;20477;-46
2022/12/01 05:48:22;;;;;;;9.35;4.50;;;4.60;99.90;;;;;;5030592;28;20029;-45
2022/12/01 05:50:48;;;;;;;10.23;5.13;;;;;;;;;;5030234;28;20021;-50
2022/12/01 05:53:14;;;;;;;10.63;4.80;;;7.20;99.90;;;;;;5033050;28;20401;-50
2022/12/01 05:55:40;;;;;;;9.07;4.90;;;7.90;99.90;;;;;;5039796;28;20045;-57
2022/12/01 05:58:06;;;;;;;10.65;5.07;;;;;;;;;;5037342;28;20029;-48
2022/12/01 06:00:32;;;;;;;12.52;4.80;;;7.60;99.90;;;;;;5043462;28;20488;-54
2022/12/01 06:02:58;;;;;;;11.25;4.93;;;7.70;99.90;;;;;;5042891;28;20046;-41
2022/12/01 06:05:23;;;;;;;10.75;4.70;;;7.30;99.90;;;;;;5032349;28;20034;-50
2022/12/01 06:07:49;;;;;;;8.80;4.57;;;7.90;99.90;;;;;;5032409;28;20021;-42
2022/12/01 06:10:15;;;;;;;11.55;4.95;;;8.10;99.90;;;;;;5033325;28;20022;-42
2022/12/01 06:12:40;;;;;;;9.82;4.78;;;7.50;99.90;;;;;;5032619;28;20029;-42
2022/12/01 06:15:07;;;;;;;10.35;4.82;;;7.10;99.90;;;;;;5033161;28;20041;-47
2022/12/01 06:17:33;;;;;;;11.88;4.80;;;7.40;99.90;;;;;;5033689;28;20017;-58
2022/12/01 06:19:58;;;;;;;11.52;5.15;;;4.60;99.90;;;;;;5033648;28;20507;-48
2022/12/01 06:22:24;;;;;;;11.05;5.30;;;7.30;99.90;;;;;;5032692;28;20033;-49
2022/12/01 06:24:50;;;;;;;9.52;5.25;;;7.30;99.90;;;;;;5031631;28;20104;-42
2022/12/01 06:27:16;;;;;;;10.77;5.22;;;5.50;99.90;;;;;;5031951;28;20021;-41
2022/12/01 06:29:42;;;;;;;12.30;5.38;;;;;;;;;;5051820;28;20029;-42
2022/12/01 06:32:07;;;;;;;11.00;5.20;;;7.10;99.90;;;;;;5051887;28;20384;-44
2022/12/01 06:34:33;;;;;;;10.95;5.32;;;;;;;;;;5050449;28;20033;-42
2022/12/01 06:36:59;;;;;;;11.82;5.50;;;7.30;99.90;;;;;;5051801;28;20112;-48
2022/12/01 06:39:25;;;;;;;11.45;4.80;;;;;;;;;;5053314;28;20117;-40
2022/12/01 06:41:51;;;;;;;9.73;5.15;;;;;;;;;;5053256;28;20071;-41
2022/12/01 06:44:16;;;;;;;9.38;5.22;;;7.90;99.90;;;;;;5053033;28;20491;-42
2022/12/01 06:46:42;;;;;;;11.77;4.75;;;4.40;99.90;;;;;;5052920;28;20075;-45
2022/12/01 06:49:12;;;;;;;10.57;4.63;;;7.10;99.90;;;;;;5052155;28;20357;-46
2022/12/01 06:51:38;;;;;;;11.43;5.20;;;7.40;99.90;;;;;;5050221;28;20029;-45
2022/12/01 06:54:03;;;;;;;11.07;5.22;;;7.10;99.90;;;;;;5037346;28;20049;-46
2022/12/01 06:56:29;;;;;;;11.30;4.82;;;7.60;99.90;;;;;;5050129;28;20037;-44
2022/12/01 06:58:55;;;;;;;9.60;4.82;;;7.00;99.90;;;;;;5053449;28;20448;-43
2022/12/01 07:01:20;;;;;;;11.40;4.65;;;7.90;99.90;;;;;;5047599;28;20543;-42
2022/12/01 07:03:47;;;;;;;10.73;4.95;;;7.90;99.90;;;;;;5035220;28;20026;-48
2022/12/01 07:06:13;;;;;;;10.73;4.70;;;;;;;;;;5037148;28;20132;-43
2022/12/01 07:08:39;;;;;;;7.60;4.28;;;6.90;99.90;;;;;;5025774;28;20160;-41
2022/12/01 07:11:13;;;;;;;15.82;4.80;;;7.10;99.90;;;;;;5036676;28;20029;-40
2022/12/01 07:13:40;;;;;;;11.68;4.85;;;8.90;99.90;;;;;;5032766;28;20060;-40
2022/12/01 07:16:07;;;;;;;11.55;4.35;;;7.80;99.90;;;;;;5032660;28;20837;-40
2022/12/01 07:18:33;;;;;;;11.20;5.13;;;7.20;99.90;;;;;;5032349;28;20025;-48
2022/12/01 07:21:00;;;;;;;13.82;4.65;;;7.10;99.90;;;;;;5032160;28;20179;-46
2022/12/01 07:23:26;;;;;;;10.90;4.50;;;7.30;99.90;;;;;;5042436;28;20021;-41
2022/12/01 07:26:02;;;;;;;7.88;4.38;;;8.10;99.90;;;;;;5034383;28;20068;-41
2022/12/01 07:28:28;;;;;;;9.93;4.60;;;7.00;99.90;;;;;;5041571;28;20028;-46
2022/12/01 07:30:59;;;;;;;9.00;4.85;;;8.60;99.90;;;;;;5043519;28;20059;-51
2022/12/01 07:33:25;;;;;;;12.95;4.88;;;7.60;99.90;;;;;;5045799;28;20067;-48
2022/12/01 07:35:52;;;;;;;10.05;4.70;;;7.90;99.90;;;;;;5047905;28;20088;-45
2022/12/01 07:38:18;;;;;;;11.25;4.70;;;7.40;99.90;;;;;;5038616;28;20025;-42
2022/12/01 07:40:44;;;;;;;12.73;4.40;;;;;;;;;;5043420;28;20044;-43
2022/12/01 07:43:10;;;;;;;8.55;4.32;;;7.60;99.90;;;;;;5049937;28;20036;-45
2022/12/01 07:45:35;;;;;;;10.13;4.57;;;7.10;99.90;;;;;;5048355;28;20025;-42
2022/12/01 07:48:01;;;;;;;9.75;4.75;;;7.10;99.90;;;;;;5040431;28;20022;-43
2022/12/01 07:50:26;;;;;;;11.07;4.43;;;7.00;99.90;;;;;;5031867;28;20080;-44
2022/12/01 07:52:52;;;;;;;9.45;4.47;;;6.70;99.90;;;;;;5063101;28;20052;-44
2022/12/01 07:55:18;;;;;;;10.20;5.25;;;6.60;99.90;;;;;;5031564;28;20115;-44
2022/12/01 07:57:44;;;;;;;12.45;4.93;;;;;;;;;;5039313;28;20296;-45
2022/12/01 08:00:10;;;;;;;11.00;4.70;;;;;;;;;;5031564;28;20044;-42
2022/12/01 08:02:36;;;;;;;11.65;4.95;;;;;;;;;;5042662;28;20135;-44
2022/12/01 08:05:02;;;;;;;11.70;5.03;;;;;;;;;;5046156;28;20048;-47
2022/12/01 08:07:27;;;;;;;9.00;4.82;;;6.00;99.90;;;;;;5031473;28;20381;-45
2022/12/01 08:09:53;;;;;;;8.38;4.60;;;8.10;99.90;;;;;;5031648;28;20067;-46
2022/12/01 08:12:19;;;;;;;9.63;5.10;;;;;;;;;;5031782;28;20373;-43
2022/12/01 08:14:45;;;;;;;8.18;4.55;;;6.30;99.90;;;;;;5030959;28;20065;-49
2022/12/01 08:17:10;;;;;;;9.63;4.65;;;6.10;99.90;;;;;;5030908;28;20071;-44
2022/12/01 08:19:36;;;;;;;10.70;4.90;;;3.90;99.90;;;;;;5031285;28;20022;-53
2022/12/01 08:22:02;;;;;;;8.93;4.60;;;7.40;99.90;;;;;;5031276;28;20376;-57
2022/12/01 08:24:27;;;;;;;8.38;4.03;;;7.00;99.90;;;;;;5031134;28;20056;-55
2022/12/01 08:26:53;;;;;;;9.88;4.50;;;8.00;99.90;;;;;;5030600;28;20115;-52
2022/12/01 08:29:18;;;;;;;7.45;4.10;;;8.90;99.90;;;;;;5047801;28;20361;-43
2022/12/01 08:31:44;;;;;;;9.20;3.88;;;9.30;99.90;;;;;;5049617;28;20040;-46
2022/12/01 08:34:10;;;;;;;7.82;3.50;;;9.70;99.90;;;;;;5050695;28;20103;-48
2022/12/01 08:36:36;;;;;;;7.15;3.58;;;10.30;99.90;;;;;;5051028;28;20033;-44
2022/12/01 08:39:02;;;;;;;6.25;3.33;;;9.70;99.90;;;;;;5051095;28;20024;-48
2022/12/01 08:41:27;;;;;;;8.18;3.20;;;11.10;99.90;;;;;;5051089;28;20023;-49
2022/12/01 08:43:53;;;;;;;8.93;3.40;;;11.80;99.90;;;;;;5050512;28;20099;-46
2022/12/01 08:46:20;;;;;;;5.85;3.03;;;11.70;99.90;;;;;;5048638;28;20459;-43
2022/12/01 08:48:46;;;;;;;7.00;2.85;;;13.90;99.90;;;;;;5037588;28;20072;-50
2022/12/01 08:51:17;;;;;;;5.80;3.20;;;13.70;99.90;;;;;;5030265;28;20108;-49
2022/12/01 08:53:45;;;;;;;5.75;3.15;;;12.80;99.90;;;;;;5030415;28;20132;-48
2022/12/01 08:56:16;;;;;;;4.85;2.50;;;12.00;99.90;;;;;;5030345;28;20033;-49
2022/12/01 08:58:42;;;;;;;8.85;3.55;;;13.30;99.90;;;;;;5037360;28;20026;-53
2022/12/01 09:01:11;;;;;;;5.65;3.13;;;11.40;99.90;;;;;;5024328;28;20083;-48
2022/12/01 09:03:38;;;;;;;5.15;2.85;;;9.20;99.90;;;;;;5044884;28;20029;-49
2022/12/01 09:06:06;;;;;;;5.72;2.95;;;10.00;99.90;;;;;;5038505;28;20026;-46
2022/12/01 09:08:33;;;;;;;7.03;3.45;;;10.30;99.90;;;;;;5030561;28;20037;-54
2022/12/01 09:11:02;;;;;;;6.57;3.20;;;9.30;99.90;;;;;;5030667;28;20021;-47
2022/12/01 09:13:28;;;;;;;6.88;2.80;;;9.70;99.90;;;;;;5030550;28;20037;-43
2022/12/01 09:15:59;;;;;;;4.55;2.67;;;8.00;99.90;;;;;;5030502;28;20037;-50
2022/12/01 09:18:25;;;;;;;7.15;3.05;;;7.90;99.90;;;;;;5030575;28;20018;-48
2022/12/01 09:20:52;;;;;;;5.53;2.67;;;9.50;99.90;;;;;;5030372;28;20029;-43
2022/12/01 09:23:18;;;;;;;6.70;3.22;;;9.50;99.90;;;;;;5038212;28;20017;-45
2022/12/01 09:25:43;;;;;;;6.10;3.05;;;9.90;99.90;;;;;;5028574;28;20084;-52
2022/12/01 09:28:09;;;;;;;6.95;3.38;;;9.40;99.90;;;;;;5035275;28;20049;-48
2022/12/01 09:30:35;;;;;;;8.13;3.20;;;10.30;99.90;;;;;;5048400;28;20082;-46
2022/12/01 09:33:00;;;;;;;6.63;3.20;;;9.40;99.90;;;;;;5054299;28;20029;-46
2022/12/01 09:35:27;;;;;;;5.20;2.90;;;9.80;99.90;;;;;;5053122;28;20036;-42
2022/12/01 09:37:52;;;;;;;8.93;3.28;;;10.70;99.90;;;;;;5048165;28;20025;-46
2022/12/01 09:40:18;;;;;;;6.40;3.08;;;;;;;;;;5051782;28;20067;-44
2022/12/01 09:42:46;;;;;;;6.80;3.35;;;7.30;99.90;;;;;;5048823;28;20026;-42
2022/12/01 09:45:27;;;;;;;10.63;3.88;;;8.00;99.90;;;;;;5050708;28;20499;-44
2022/12/01 09:47:57;;;;;;;7.53;3.38;;;11.50;99.90;;;;;;5050341;28;20032;-47
2022/12/01 09:50:26;;;;;;;8.18;3.20;;;10.30;99.90;;;;;;5051988;28;20086;-42
2022/12/01 09:53:06;;;;;;;5.13;2.78;;;11.80;99.90;;;;;;5051641;28;20033;-49
2022/12/01 09:55:33;;;;;;;4.82;2.40;;;13.00;99.90;;;;;;5051948;28;20048;-42
2022/12/01 09:58:01;;;;;;;4.22;2.08;;;14.40;99.90;;;;;;5048360;28;20472;-42
2022/12/01 10:00:31;;;;;;;5.97;2.20;;;15.80;98.00;;;;;;5034043;28;20025;-42
2022/12/01 10:03:14;;;;;;;5.85;2.30;;;17.60;94.90;;;;;;5034159;28;20029;-48
2022/12/01 10:06:01;;;;;;;5.82;2.78;;;19.30;92.80;;;;;;5026302;28;20036;-48
2022/12/01 10:08:32;;;;;;;4.43;1.90;;;19.50;90.70;;;;;;5033370;28;20065;-47
2022/12/01 10:11:07;;;;;;;6.95;2.28;;;18.80;84.00;;;;;;5033847;28;20032;-42
2022/12/01 10:13:33;;;;;;;4.63;2.13;;;19.30;84.90;;;;;;5033701;28;20025;-45
2022/12/01 10:16:08;;;;;;;5.63;2.40;;;19.40;82.80;;;;;;5033668;28;20393;-43
2022/12/01 10:18:36;;;;;;;6.47;2.45;;;18.10;81.90;;;;;;5033471;28;20033;-42
2022/12/01 10:21:28;;;;;;;6.83;2.23;;;17.80;91.40;;;;;;5047404;28;20032;-43
2022/12/01 10:24:13;;;;;;;4.35;2.20;;;15.00;90.40;;;;;;5034876;28;20024;-43
2022/12/01 10:26:44;;;;;;;6.05;2.30;;;16.30;94.80;;;;;;5038398;28;20028;-48
2022/12/01 10:29:32;;;;;;;4.80;2.40;;;14.50;94.60;;;;;;5045941;28;20117;-51
2022/12/01 10:32:09;;;;;;;5.70;2.45;;;18.50;88.60;;;;;;5033345;28;20018;-51
2022/12/01 10:34:40;;;;;;;6.75;2.80;;;18.20;88.80;;;;;;5032281;28;20045;-47
2022/12/01 10:37:13;;;;;;;4.93;2.53;;;20.00;86.40;;;;;;5024802;28;20480;-47
2022/12/01 10:39:42;;;;;;;6.07;2.28;;;21.10;80.70;;;;;;5032587;28;20032;-48
2022/12/01 10:42:13;;;;;;;;;;;22.80;74.50;;;;;;5033663;28;20484;-50
2022/12/01 10:44:40;;;;;;;4.65;2.53;;;23.50;70.00;;;;;;5033147;28;19909;-48
2022/12/01 10:47:22;;;;;;;6.53;2.35;;;22.60;67.50;;;;;;5032872;28;20026;-48
2022/12/01 10:49:48;;;;;;;6.05;2.50;;;23.40;68.90;;;;;;5033109;28;20022;-50
2022/12/01 10:52:40;;;;;;;4.43;2.33;;;24.00;66.80;;;;;;5031806;28;20018;-55
2022/12/01 10:55:26;;;;;;;4.30;2.47;;;25.00;61.70;;;;;;5032602;28;20045;-52
2022/12/01 10:57:54;;;;;;;6.03;2.70;;;25.70;61.10;;;;;;5027208;28;20083;-44
2022/12/01 11:00:25;;;;;;;5.03;2.47;;;25.30;59.00;;;;;;5032586;28;20024;-57
2022/12/01 11:02:52;;;;;;;6.32;2.72;;;25.30;60.70;;;;;;5032511;28;20481;-44
2022/12/01 11:05:24;;;;;;;6.95;3.15;;;25.30;57.20;;;;;;5032794;28;20053;-50
2022/12/01 11:07:51;;;;;;;5.47;3.08;;;25.50;57.70;;;;;;5032555;28;20055;-42
2022/12/01 11:10:18;;;;;;;5.78;2.78;;;25.20;57.00;;;;;;5032679;28;20025;-48
2022/12/01 11:12:52;;;;;;;5.75;3.17;;;25.20;57.00;;;;;;5032407;28;20025;-46
2022/12/01 11:15:27;;;;;;;5.40;3.30;;;24.60;59.20;;;;;;5032601;28;20057;-42
2022/12/01 11:17:57;;;;;;;6.32;3.17;;;25.10;58.20;;;;;;5032517;28;20029;-50
2022/12/01 11:20:28;;;;;;;5.63;2.65;;;25.80;56.10;;;;;;5032430;28;20067;-42
2022/12/01 11:23:20;;;;;;;5.32;2.67;;;25.60;55.80;;;;;;5032202;28;20028;-41
2022/12/01 11:26:14;;;;;;;4.28;2.50;;;23.80;57.80;;;;;;5031894;28;20468;-40
2022/12/01 11:28:50;;;;;;;4.88;2.63;;;22.60;59.10;;;;;;5043817;28;20048;-45
2022/12/01 11:31:16;;;;;;;5.43;3.03;;;23.80;59.40;;;;;;5045777;28;20556;-43
2022/12/01 11:33:49;;;;;;;4.68;2.70;;;23.90;58.30;;;;;;5040641;28;20037;-45
2022/12/01 11:36:38;;;;;;;4.20;2.80;;;21.70;57.20;;;;;;5031944;28;20431;-45
2022/12/01 11:39:04;;;;;;;5.05;3.13;;;24.90;58.10;;;;;;5031876;28;20492;-45
2022/12/01 11:41:38;;;;;;;6.80;2.78;;;25.00;55.60;;;;;;5039187;28;20060;-47
2022/12/01 11:44:13;;;;;;;5.90;2.88;;;25.80;55.80;;;;;;5031904;28;20025;-44
2022/12/01 11:46:41;;;;;;;5.65;3.00;;;22.10;53.70;;;;;;5031985;28;20026;-42
2022/12/01 11:49:22;;;;;;;6.18;3.10;;;24.10;55.50;;;;;;5031790;28;20030;-44
2022/12/01 11:51:48;;;;;;;6.10;3.03;;;24.10;57.20;;;;;;5031706;28;20448;-43
2022/12/01 11:54:21;;;;;;;5.93;2.90;;;23.80;56.60;;;;;;5031324;28;20129;-44
2022/12/01 11:56:48;;;;;;;5.53;2.40;;;24.30;57.30;;;;;;5031609;28;20033;-45
2022/12/01 11:59:26;;;;;;;4.63;2.80;;;24.10;57.10;;;;;;5031230;28;20040;-47
2022/12/01 12:02:21;;;;;;;5.80;3.10;;;23.10;56.60;;;;;;5031762;28;20032;-43
2022/12/01 12:05:13;;;;;;;6.40;2.95;;;21.30;59.50;;;;;;5031348;28;20025;-39
2022/12/01 12:08:04;;;;;;;5.93;3.05;;;19.50;65.00;;;;;;5031147;28;20486;-45
2022/12/01 12:10:35;;;;;;;6.32;3.47;;;19.70;68.50;;;;;;5037133;28;20038;-47
2022/12/01 12:13:13;;;;;;;5.97;2.90;;;20.30;64.40;;;;;;5031075;28;20053;-43
2022/12/01 12:15:41;;;;;;;7.10;3.10;;;21.10;59.80;;;;;;5033383;28;20037;-45
2022/12/01 12:18:16;;;;;;;7.18;3.10;;;22.70;61.50;;;;;;5033301;28;20028;-45
2022/12/01 12:20:53;;;;;;;8.02;3.22;;;24.00;58.30;;;;;;5045173;28;20036;-49
2022/12/01 12:23:50;;;;;;;7.82;3.30;;;23.80;58.70;;;;;;5036236;28;20034;-49
2022/12/01 12:26:26;;;;;;;6.07;3.55;;;24.10;57.90;;;;;;5026036;28;20025;-49
2022/12/01 12:29:10;;;;;;;5.20;2.78;;;24.50;55.20;;;;;;5044582;28;20508;-41
2022/12/01 12:32:04;;;;;;;5.65;3.22;;;24.40;55.40;;;;;;5040128;28;20025;-45
2022/12/01 12:34:39;;;;;;;4.90;2.90;;;24.60;55.80;;;;;;5029211;28;20064;-50
2022/12/01 12:37:13;;;;;;;5.82;2.83;;;23.40;55.70;;;;;;5030445;28;20089;-46
2022/12/01 12:39:42;;;;;;;5.78;2.88;;;23.90;55.40;;;;;;5030550;28;20021;-43
2022/12/01 12:42:32;;;;;;;5.03;2.88;;;24.40;56.60;;;;;;5030410;28;20116;-43
2022/12/01 12:45:16;;;;;;;4.85;2.53;;;27.00;56.10;;;;;;5027474;28;20083;-49
2022/12/01 12:47:44;;;;;;;4.93;2.60;;;25.00;53.80;;;;;;5028403;28;20026;-43
2022/12/01 12:50:24;;;;;;;4.93;2.97;;;24.80;54.20;;;;;;5030517;28;20014;-52
2022/12/01 12:52:55;;;;;;;4.95;2.47;;;24.10;54.80;;;;;;5030385;28;20415;-48
2022/12/01 12:55:32;;;;;;;5.15;2.53;;;23.00;55.80;;;;;;5030725;28;20424;-43
2022/12/01 12:58:09;;;;;;;4.90;2.50;;;22.80;58.50;;;;;;5029136;28;20522;-43
2022/12/01 13:00:42;;;;;;;5.68;2.75;;;22.10;57.70;;;;;;5030791;28;20051;-48
2022/12/01 13:03:21;;;;;;;5.68;3.00;;;20.50;60.00;;;;;;5030202;28;20105;-47
2022/12/01 13:05:48;;;;;;;;;;;20.00;63.60;;;;;;5031080;28;20035;-42
2022/12/01 13:08:30;;;;;;;5.55;2.70;;;20.10;64.00;;;;;;5030637;28;19941;-45
2022/12/01 13:11:14;;;;;;;9.07;3.30;;;19.90;63.90;;;;;;5030109;28;20018;-48
2022/12/01 13:13:56;;;;;;;5.35;2.70;;;18.90;66.80;;;;;;5037378;28;20013;-45